Alcester, South Dakota
Current Conditions -  °F | °C
As of 6:35 AM on Saturday 01 Nov 2014 (Local Time) from KLRJ Reporting Station
Clear Clear  
Wind Chill: 17°   Ceiling: Unl
Heat Index: 28°   Visibility: 10mi
Dew Point: 19°   Wind: 14mph
Humidity: 69%   Direction: 150°SSE
Pressure: 30.38"   Gusts: NA
Location:  43.02°N, 96.63°W
Report Text: KLRJ 011135Z AUTO 15012KT 10SM CLR M02/M07 A3038 RMK AO2
Loading
Personal Weather Stations






























Interactive Weather Map
Tropical Storm Tracking
New forecast layout! Learn more

10-Day Weather Forecast

Advertisements
Track Severe Weather on mobile